createdAt,value
2022-10-21T01:20:58.829Z,14.20
2022-10-21T01:23:54.837Z,13.10
2022-10-21T01:26:50.728Z,13.10
2022-10-21T01:29:36.880Z,13.00
2022-10-21T01:32:10.204Z,12.90
2022-10-21T01:34:43.916Z,12.90
2022-10-21T01:37:17.489Z,12.90
2022-10-21T01:39:52.972Z,12.80
2022-10-21T01:42:28.401Z,12.80
2022-10-21T01:45:02.243Z,12.70
2022-10-21T01:47:35.177Z,12.70
2022-10-21T01:50:07.503Z,12.70
2022-10-21T01:52:35.848Z,12.70
2022-10-21T01:55:08.064Z,12.70
2022-10-21T01:57:39.018Z,12.70
2022-10-21T02:00:07.802Z,12.70
2022-10-21T02:02:41.463Z,12.70
2022-10-21T02:05:14.625Z,12.80
2022-10-21T02:07:42.882Z,12.80
2022-10-21T02:10:11.512Z,12.80
2022-10-21T02:12:41.596Z,12.80
2022-10-21T02:15:12.587Z,12.80
2022-10-21T02:17:46.358Z,12.80
2022-10-21T02:20:16.850Z,12.80
2022-10-21T02:22:48.153Z,12.80
2022-10-21T02:25:19.553Z,12.80
2022-10-21T02:27:48.368Z,12.80
2022-10-21T02:30:17.417Z,12.80
2022-10-21T02:32:53.071Z,12.80
2022-10-21T02:35:31.625Z,12.80
2022-10-21T02:38:04.789Z,12.80
2022-10-21T02:40:37.355Z,12.80
2022-10-21T02:43:10.120Z,12.80
2022-10-21T02:45:39.494Z,12.80
2022-10-21T02:48:08.783Z,12.80
2022-10-21T02:50:36.669Z,12.80
2022-10-21T02:53:04.772Z,12.80
2022-10-21T02:55:32.704Z,12.80
2022-10-21T02:58:00.617Z,12.80
2022-10-21T03:00:32.097Z,12.90
2022-10-21T03:03:01.303Z,12.80
2022-10-21T03:07:59.622Z,12.80
2022-10-21T03:10:27.538Z,12.90
2022-10-21T03:12:55.409Z,12.80
2022-10-21T03:15:23.333Z,12.90
2022-10-21T03:17:51.283Z,12.90
2022-10-21T03:20:19.249Z,12.90
2022-10-21T03:22:48.494Z,12.90
2022-10-21T03:25:16.573Z,12.90
2022-10-21T03:27:44.489Z,12.90
2022-10-21T03:30:12.653Z,13.00
2022-10-21T03:32:40.906Z,13.00
2022-10-21T03:35:09.579Z,13.10
2022-10-21T03:37:37.492Z,13.10
2022-10-21T03:40:11.467Z,13.10
2022-10-21T03:42:40.802Z,13.10
2022-10-21T03:45:10.215Z,13.20
2022-10-21T03:47:38.153Z,13.10
2022-10-21T03:50:10.244Z,13.10
2022-10-21T03:52:41.452Z,13.20
2022-10-21T03:55:10.942Z,13.20
2022-10-21T03:57:39.710Z,13.20
2022-10-21T04:00:09.507Z,13.30
2022-10-21T04:02:43.220Z,13.30
2022-10-21T04:12:38.747Z,13.30
2022-10-21T04:15:08.267Z,13.40
2022-10-21T04:17:36.192Z,13.50
2022-10-21T04:20:04.691Z,13.50
2022-10-21T04:22:32.668Z,13.50
2022-10-21T04:25:04.811Z,13.50
2022-10-21T04:27:32.953Z,13.50
